createdAt,value
2017-03-12T00:00:05.400Z,99.99
2017-03-12T00:01:05.416Z,99.99
2017-03-12T00:03:05.454Z,99.99
2017-03-12T00:04:05.462Z,99.99
2017-03-12T00:05:05.484Z,99.99
2017-03-12T00:06:05.501Z,99.99
2017-03-12T00:07:05.528Z,99.99
2017-03-12T00:08:05.533Z,99.99
2017-03-12T00:09:05.553Z,99.99
2017-03-12T00:10:05.560Z,99.99
2017-03-12T00:11:05.577Z,99.99
2017-03-12T00:12:05.609Z,99.99
2017-03-12T00:13:20.134Z,99.99
2017-03-12T00:14:05.624Z,99.99
2017-03-12T00:15:05.643Z,99.99
2017-03-12T00:16:05.663Z,99.99
2017-03-12T00:18:05.688Z,99.99
2017-03-12T00:19:05.703Z,99.99
2017-03-12T00:20:05.334Z,99.99
2017-03-12T00:21:05.742Z,99.99
2017-03-12T00:22:05.759Z,99.99
2017-03-12T00:23:05.779Z,99.99
2017-03-12T00:24:05.780Z,99.99
2017-03-12T00:25:05.797Z,99.99
2017-03-12T00:26:05.821Z,99.99
2017-03-12T00:27:05.847Z,99.99
2017-03-12T00:29:20.388Z,99.99
2017-03-12T00:30:05.895Z,99.99
2017-03-12T00:31:05.901Z,99.99
2017-03-12T00:32:05.916Z,99.99
2017-03-12T00:33:05.927Z,99.99
2017-03-12T00:34:05.944Z,99.99
2017-03-12T00:35:05.567Z,99.99
2017-03-12T00:36:05.978Z,99.99
2017-03-12T00:37:05.994Z,99.99
2017-03-12T00:38:06.005Z,99.99
2017-03-12T00:39:06.019Z,99.99
2017-03-12T00:40:06.034Z,99.99
2017-03-12T00:41:06.051Z,99.99
2017-03-12T00:42:06.068Z,99.99
2017-03-12T00:43:06.082Z,99.99
2017-03-12T00:44:20.626Z,99.99
2017-03-12T00:45:06.115Z,99.99
2017-03-12T00:46:06.130Z,99.99
2017-03-12T00:47:06.152Z,99.99
2017-03-12T00:49:06.191Z,99.99
2017-03-12T00:50:05.817Z,99.99
2017-03-12T00:51:06.209Z,99.99
2017-03-12T00:52:06.227Z,99.99
2017-03-12T00:53:06.241Z,99.99
2017-03-12T00:54:06.260Z,99.99
2017-03-12T00:55:06.276Z,99.99
2017-03-12T00:56:06.288Z,99.99
2017-03-12T00:57:06.317Z,99.99
2017-03-12T00:58:06.330Z,99.99
2017-03-12T00:59:06.339Z,99.99
2017-03-12T01:00:06.352Z,99.99
2017-03-12T01:01:06.368Z,99.99
2017-03-12T01:04:06.412Z,99.99
2017-03-12T01:05:06.429Z,99.99
2017-03-12T01:06:06.444Z,99.99
2017-03-12T01:07:06.460Z,99.99
2017-03-12T01:08:06.477Z,99.99
2017-03-12T01:09:06.492Z,99.99
2017-03-12T01:10:06.507Z,99.99
2017-03-12T01:11:06.536Z,99.99
2017-03-12T01:12:06.546Z,99.99
2017-03-12T01:13:06.558Z,99.99
2017-03-12T01:14:06.568Z,99.99
2017-03-12T01:15:06.585Z,99.99
2017-03-12T01:16:21.127Z,99.99
2017-03-12T01:17:06.632Z,99.99
2017-03-12T01:18:06.634Z,99.99
2017-03-12T01:19:06.678Z,99.99
2017-03-12T01:20:06.663Z,99.99
2017-03-12T01:21:06.680Z,99.99
2017-03-12T01:22:06.709Z,99.99
2017-03-12T01:23:06.708Z,99.99
2017-03-12T01:24:06.344Z,99.99
2017-03-12T01:25:06.746Z,99.99
2017-03-12T01:26:06.761Z,99.99
2017-03-12T01:27:06.771Z,99.99
2017-03-12T01:28:06.787Z,99.99
2017-03-12T01:29:06.805Z,99.99
2017-03-12T01:30:06.813Z,99.99
2017-03-12T01:31:06.831Z,99.99
2017-03-12T01:32:21.374Z,99.99
2017-03-12T01:33:06.876Z,99.99
2017-03-12T01:34:06.881Z,99.99
2017-03-12T01:35:06.893Z,99.99
2017-03-12T01:37:06.924Z,99.99
2017-03-12T01:38:06.942Z,99.99
2017-03-12T01:39:06.966Z,99.99
2017-03-12T01:40:06.971Z,99.99
2017-03-12T01:41:06.983Z,99.99
2017-03-12T01:42:07.003Z,99.99
2017-03-12T01:43:07.029Z,99.99
2017-03-12T01:44:07.033Z,99.99
2017-03-12T01:45:07.047Z,99.99
2017-03-12T01:46:07.073Z,99.99
2017-03-12T01:47:06.718Z,99.99
2017-03-12T01:48:21.619Z,99.99
2017-03-12T01:49:07.109Z,99.99
2017-03-12T01:50:07.136Z,99.99
2017-03-12T01:51:07.139Z,99.99
2017-03-12T01:52:07.155Z,99.99
2017-03-12T01:53:07.172Z,99.99
2017-03-12T01:54:07.183Z,99.99
2017-03-12T01:55:07.214Z,99.99
2017-03-12T01:57:07.230Z,99.99
2017-03-12T01:58:07.245Z,99.99
2017-03-12T01:59:07.260Z,99.99
2017-03-12T02:00:07.285Z,99.99
2017-03-12T02:02:07.308Z,99.99
2017-03-12T02:03:07.325Z,99.99
2017-03-12T02:04:21.864Z,99.99
2017-03-12T02:05:07.368Z,99.99
2017-03-12T02:06:07.367Z,99.99
2017-03-12T02:07:07.383Z,99.99
2017-03-12T02:08:07.012Z,99.99
2017-03-12T02:11:07.450Z,99.99
2017-03-12T02:12:07.461Z,99.99
2017-03-12T02:13:07.475Z,99.99
2017-03-12T02:14:07.507Z,99.99
2017-03-12T02:15:07.505Z,99.99
2017-03-12T02:16:07.535Z,99.99
2017-03-12T02:17:07.538Z,99.99
2017-03-12T02:18:07.555Z,99.99
2017-03-12T02:19:22.093Z,99.99
2017-03-12T02:20:07.203Z,99.99
2017-03-12T02:22:07.612Z,99.99
2017-03-12T02:23:07.634Z,99.99
2017-03-12T02:24:07.644Z,99.99
2017-03-12T02:25:07.658Z,99.99
2017-03-12T02:26:07.287Z,99.99
2017-03-12T02:27:07.690Z,99.99
2017-03-12T02:28:07.318Z,99.99
2017-03-12T02:29:07.718Z,99.99
2017-03-12T02:30:07.735Z,99.99
2017-03-12T02:31:07.759Z,99.99
2017-03-12T02:32:07.771Z,99.99
2017-03-12T02:33:07.398Z,99.99
2017-03-12T02:34:07.405Z,99.99
2017-03-12T02:35:07.432Z,99.99
2017-03-12T02:36:07.438Z,99.99
2017-03-12T02:37:07.451Z,99.99
2017-03-12T02:38:07.474Z,99.99
2017-03-12T02:39:07.480Z,99.99
2017-03-12T02:40:07.504Z,99.99
2017-03-12T02:41:07.526Z,99.99
2017-03-12T02:43:07.936Z,99.99
2017-03-12T02:44:07.556Z,99.99
2017-03-12T02:45:07.970Z,99.99
2017-03-12T02:46:07.587Z,99.99
2017-03-12T02:47:07.987Z,99.99
2017-03-12T02:48:07.617Z,99.99
2017-03-12T02:49:08.019Z,99.99
2017-03-12T02:50:08.072Z,99.99
2017-03-12T02:51:22.575Z,99.99
2017-03-12T02:52:08.062Z,99.99
2017-03-12T02:53:08.077Z,99.99
2017-03-12T02:54:08.091Z,99.99
2017-03-12T02:56:08.123Z,99.99
2017-03-12T02:57:08.138Z,99.99
2017-03-12T02:58:08.163Z,99.99
2017-03-12T02:59:08.167Z,99.99
2017-03-12T03:00:08.184Z,99.99
2017-03-12T03:01:08.202Z,99.99
2017-03-12T03:02:07.823Z,99.99
2017-03-12T03:03:08.233Z,99.99
2017-03-12T03:04:08.247Z,99.99
2017-03-12T03:05:08.257Z,99.99
2017-03-12T03:06:08.272Z,99.99
2017-03-12T03:07:22.814Z,99.99
2017-03-12T03:08:08.301Z,99.99
2017-03-12T03:10:08.341Z,99.99
2017-03-12T03:12:08.375Z,99.99
2017-03-12T03:13:08.387Z,99.99
2017-03-12T03:14:08.396Z,99.99
2017-03-12T03:15:08.407Z,99.99
2017-03-12T03:16:08.423Z,99.99
2017-03-12T03:17:08.450Z,99.99
2017-03-12T03:18:08.452Z,99.99
2017-03-12T03:19:08.717Z,99.99
2017-03-12T03:20:08.482Z,99.99
2017-03-12T03:21:08.501Z,99.99
2017-03-12T03:22:08.128Z,99.99
2017-03-12T03:23:23.053Z,99.99
2017-03-12T03:25:08.562Z,99.99
2017-03-12T03:27:08.588Z,99.99
2017-03-12T03:28:08.220Z,99.99
2017-03-12T03:29:08.614Z,99.99
2017-03-12T03:30:08.639Z,99.99
2017-03-12T03:31:08.650Z,99.99
2017-03-12T03:32:08.671Z,99.99
2017-03-12T03:33:08.683Z,99.99
2017-03-12T03:34:08.686Z,99.99
2017-03-12T03:35:08.713Z,99.99
2017-03-12T03:36:08.730Z,99.99
2017-03-12T03:37:08.736Z,99.99
2017-03-12T03:38:08.752Z,99.99
2017-03-12T03:39:23.290Z,99.99
2017-03-12T03:40:08.779Z,99.99
2017-03-12T03:41:08.794Z,99.99
2017-03-12T03:42:08.806Z,99.99
2017-03-12T03:43:08.823Z,99.99
2017-03-12T03:44:08.838Z,99.99
2017-03-12T03:45:08.848Z,99.99
2017-03-12T03:46:08.884Z,99.99
2017-03-12T03:47:08.881Z,99.99
2017-03-12T03:48:08.904Z,99.99
2017-03-12T03:49:08.921Z,99.99
2017-03-12T03:50:08.543Z,99.99
2017-03-12T03:51:08.942Z,99.99
2017-03-12T03:52:08.959Z,99.99
2017-03-12T03:53:08.979Z,99.99
2017-03-12T03:54:23.512Z,99.99
2017-03-12T03:55:09.001Z,99.99
2017-03-12T03:56:09.015Z,99.99
2017-03-12T03:57:09.030Z,99.99
2017-03-12T03:58:09.050Z,99.99
2017-03-12T04:00:08.693Z,99.99
2017-03-12T04:01:09.090Z,99.99
2017-03-12T04:03:09.121Z,99.99
2017-03-12T04:04:09.133Z,99.99
2017-03-12T04:05:09.149Z,99.99
2017-03-12T04:06:09.162Z,99.99
2017-03-12T04:07:09.176Z,99.99
2017-03-12T04:08:09.194Z,99.99
2017-03-12T04:09:09.214Z,99.99
2017-03-12T04:10:09.225Z,99.99
2017-03-12T04:11:09.235Z,99.99
2017-03-12T04:12:09.259Z,99.99
2017-03-12T04:13:09.263Z,99.99
2017-03-12T04:14:09.290Z,99.99
2017-03-12T04:15:09.296Z,99.99
2017-03-12T04:16:09.310Z,99.99
2017-03-12T04:17:09.323Z,99.99
2017-03-12T04:18:09.339Z,99.99
2017-03-12T04:19:09.352Z,99.99
2017-03-12T04:20:09.370Z,99.99
2017-03-12T04:21:09.384Z,99.99
2017-03-12T04:22:09.400Z,99.99
2017-03-12T04:23:09.417Z,99.99
2017-03-12T04:24:09.437Z,99.99
2017-03-12T04:25:09.440Z,99.99
2017-03-12T04:26:23.982Z,99.99
2017-03-12T04:27:09.471Z,99.99
2017-03-12T04:28:09.492Z,99.99
2017-03-12T04:29:09.499Z,99.99
2017-03-12T04:30:09.520Z,99.99
2017-03-12T04:31:09.547Z,99.99
2017-03-12T04:32:09.544Z,99.99
2017-03-12T04:33:09.558Z,99.99
2017-03-12T04:34:09.437Z,99.99
2017-03-12T04:35:09.588Z,99.99
2017-03-12T04:36:09.601Z,99.99
2017-03-12T04:37:09.622Z,99.99
2017-03-12T04:38:09.634Z,99.99
2017-03-12T04:39:09.649Z,99.99
2017-03-12T04:40:09.658Z,99.99
2017-03-12T04:41:09.673Z,99.99
2017-03-12T04:42:24.215Z,99.99
2017-03-12T04:43:09.724Z,99.99
2017-03-12T04:44:09.721Z,99.99
2017-03-12T04:46:09.745Z,99.99
2017-03-12T04:47:09.765Z,99.99
2017-03-12T04:49:09.800Z,99.99
2017-03-12T04:50:09.808Z,99.99
2017-03-12T04:51:09.829Z,99.99
2017-03-12T04:52:09.833Z,99.99
2017-03-12T04:53:09.460Z,99.99
2017-03-12T04:54:09.875Z,99.99
2017-03-12T04:55:09.877Z,99.99
2017-03-12T04:56:09.900Z,99.99
2017-03-12T04:58:24.446Z,99.99
2017-03-12T04:59:09.939Z,99.99
2017-03-12T05:00:09.950Z,99.99
2017-03-12T05:01:09.967Z,99.99
2017-03-12T05:03:10.006Z,99.99
2017-03-12T05:05:10.022Z,99.99
2017-03-12T05:06:10.036Z,99.99
2017-03-12T05:07:10.051Z,99.99
2017-03-12T05:08:10.076Z,99.99
2017-03-12T05:09:10.093Z,99.99
2017-03-12T05:10:10.093Z,99.99
2017-03-12T05:11:10.110Z,99.99
2017-03-12T05:12:10.127Z,99.99
2017-03-12T05:13:10.135Z,99.99
2017-03-12T05:14:24.684Z,99.99
2017-03-12T05:15:10.166Z,99.99
2017-03-12T05:16:10.185Z,99.99
2017-03-12T05:17:10.193Z,99.99
2017-03-12T05:18:09.822Z,99.99
2017-03-12T05:19:09.842Z,99.99
2017-03-12T05:20:10.237Z,99.99
2017-03-12T05:21:09.866Z,99.99
2017-03-12T05:22:09.879Z,99.99
2017-03-12T05:23:10.299Z,99.99
2017-03-12T05:24:10.293Z,99.99
2017-03-12T05:25:10.324Z,99.99
2017-03-12T05:26:09.940Z,99.99
2017-03-12T05:27:10.339Z,99.99
2017-03-12T05:28:10.367Z,99.99
2017-03-12T05:29:24.894Z,99.99
2017-03-12T05:30:10.382Z,99.99
2017-03-12T05:31:10.404Z,99.99
2017-03-12T05:32:10.047Z,99.99
2017-03-12T05:33:10.428Z,99.99
2017-03-12T05:35:10.455Z,99.99
2017-03-12T05:36:10.082Z,99.99
2017-03-12T05:37:10.491Z,99.99
2017-03-12T05:38:10.114Z,99.99
2017-03-12T05:39:10.125Z,99.99
2017-03-12T05:40:10.526Z,99.99
2017-03-12T05:41:10.541Z,99.99
2017-03-12T05:42:10.571Z,99.99
2017-03-12T05:43:10.568Z,99.99
2017-03-12T05:44:10.653Z,99.99
2017-03-12T05:45:10.600Z,99.99
2017-03-12T05:46:10.226Z,99.99
2017-03-12T05:47:10.647Z,99.99
2017-03-12T05:48:10.641Z,99.99
2017-03-12T05:50:10.672Z,99.99
2017-03-12T05:51:10.688Z,99.99
2017-03-12T05:52:10.699Z,99.99
2017-03-12T05:53:10.329Z,99.99
2017-03-12T05:54:10.727Z,99.99
2017-03-12T05:55:10.747Z,99.99
2017-03-12T05:56:10.371Z,99.99
2017-03-12T05:57:10.771Z,99.99
2017-03-12T05:58:10.796Z,99.99
2017-03-12T05:59:10.801Z,99.99
2017-03-12T06:00:10.813Z,99.99
2017-03-12T06:01:25.354Z,99.99
2017-03-12T06:02:10.458Z,99.99
2017-03-12T06:03:10.859Z,99.99
2017-03-12T06:04:10.489Z,99.99
2017-03-12T06:05:10.895Z,99.99
2017-03-12T06:06:10.909Z,99.99
2017-03-12T06:07:10.919Z,99.99
2017-03-12T06:08:10.933Z,99.99
2017-03-12T06:09:10.950Z,99.99
2017-03-12T06:10:10.966Z,99.99
2017-03-12T06:11:10.981Z,99.99
2017-03-12T06:12:10.997Z,99.99
2017-03-12T06:13:11.016Z,99.99
2017-03-12T06:14:11.030Z,99.99
2017-03-12T06:15:11.045Z,99.99
2017-03-12T06:16:11.061Z,99.99
2017-03-12T06:17:25.607Z,99.99
2017-03-12T06:18:10.711Z,99.99
2017-03-12T06:19:11.115Z,99.99
2017-03-12T06:22:11.182Z,99.99
2017-03-12T06:23:11.209Z,99.99
2017-03-12T06:24:11.230Z,99.99
2017-03-12T06:25:11.231Z,99.99
2017-03-12T06:26:11.251Z,99.99
2017-03-12T06:27:11.273Z,99.99
2017-03-12T06:28:11.291Z,99.99
2017-03-12T06:29:11.313Z,99.99
2017-03-12T06:30:11.333Z,99.99
2017-03-12T06:31:11.353Z,99.99
2017-03-12T06:32:10.989Z,99.99
2017-03-12T06:33:25.926Z,99.99
2017-03-12T06:34:11.421Z,99.99
2017-03-12T06:35:11.444Z,99.99
2017-03-12T06:36:11.465Z,99.99
2017-03-12T06:38:11.137Z,99.99
2017-03-12T06:39:11.541Z,99.99
2017-03-12T06:40:11.556Z,99.99
2017-03-12T06:41:11.586Z,99.99
2017-03-12T06:42:11.608Z,99.99
2017-03-12T06:43:11.629Z,99.99
2017-03-12T06:44:11.668Z,99.99
2017-03-12T06:45:11.677Z,99.99
2017-03-12T06:46:11.701Z,99.99
2017-03-12T06:47:11.729Z,99.99
2017-03-12T06:48:11.746Z,99.99
2017-03-12T06:49:26.301Z,99.99
2017-03-12T06:50:11.812Z,99.99
2017-03-12T06:51:11.821Z,99.99
2017-03-12T06:52:11.856Z,99.99
2017-03-12T06:53:11.869Z,99.99
2017-03-12T06:54:11.899Z,99.99
2017-03-12T06:56:11.945Z,99.77
2017-03-12T06:57:11.970Z,99.29
2017-03-12T06:58:12.009Z,98.91
2017-03-12T06:59:12.019Z,98.35
2017-03-12T07:00:12.061Z,98.35
2017-03-12T07:01:12.070Z,98.63
2017-03-12T07:02:12.096Z,99.2
2017-03-12T07:03:12.122Z,98.63
2017-03-12T07:04:26.675Z,98.63
2017-03-12T07:05:12.170Z,98.54
2017-03-12T07:06:11.817Z,98.63
2017-03-12T07:07:12.221Z,99.58
2017-03-12T07:08:12.244Z,99.52
2017-03-12T07:09:12.274Z,99.99
2017-03-12T07:10:12.288Z,99.99
2017-03-12T07:11:12.311Z,99.99
2017-03-12T07:12:12.340Z,99.99
2017-03-12T07:13:12.355Z,99.99
2017-03-12T07:14:12.377Z,99.99
2017-03-12T07:15:12.403Z,99.99
2017-03-12T07:16:12.420Z,99.99
2017-03-12T07:17:12.444Z,99.99
2017-03-12T07:18:12.463Z,99.99
2017-03-12T07:19:12.483Z,99.99
2017-03-12T07:20:12.526Z,99.99
2017-03-12T07:21:12.145Z,99.99
2017-03-12T07:22:12.556Z,99.99
2017-03-12T07:23:12.181Z,99.99
2017-03-12T07:24:12.198Z,99.99
2017-03-12T07:25:12.605Z,99.99
2017-03-12T07:26:12.625Z,99.99
2017-03-12T07:27:12.654Z,99.99
2017-03-12T07:28:12.663Z,99.99
2017-03-12T07:29:12.685Z,99.99
2017-03-12T07:30:12.709Z,99.99
2017-03-12T07:31:12.723Z,99.99
2017-03-12T07:32:12.742Z,99.99
2017-03-12T07:33:12.383Z,99.99
2017-03-12T07:34:12.779Z,99.99
2017-03-12T07:35:12.410Z,99.99
2017-03-12T07:36:27.343Z,99.99
2017-03-12T07:37:12.846Z,99.99
2017-03-12T07:39:12.485Z,99.99
2017-03-12T07:41:12.913Z,99.99
2017-03-12T07:42:12.954Z,99.99
2017-03-12T07:44:12.970Z,99.99
2017-03-12T07:45:12.983Z,99.99
2017-03-12T07:46:13.001Z,99.99
2017-03-12T07:47:13.023Z,99.99
2017-03-12T07:48:13.039Z,99.99
2017-03-12T07:49:13.059Z,99.99
2017-03-12T07:50:13.103Z,99.99
2017-03-12T07:51:13.100Z,99.99
2017-03-12T07:52:27.638Z,99.99
2017-03-12T07:54:13.158Z,99.99
2017-03-12T07:55:13.164Z,99.99
2017-03-12T07:57:13.209Z,99.99
2017-03-12T07:58:13.218Z,99.99
2017-03-12T07:59:13.242Z,99.99
2017-03-12T08:01:13.274Z,99.99
2017-03-12T08:02:13.295Z,99.99
2017-03-12T08:03:13.307Z,99.99
2017-03-12T08:04:13.330Z,99.58
2017-03-12T08:05:13.345Z,99.86
2017-03-12T08:06:13.362Z,99.77
2017-03-12T08:07:13.384Z,99.67
2017-03-12T08:08:27.925Z,99.99
2017-03-12T08:09:13.416Z,99.99
2017-03-12T08:11:13.451Z,99.99
2017-03-12T08:12:13.466Z,99.99
2017-03-12T08:13:13.488Z,99.77
2017-03-12T08:14:13.505Z,99.99
2017-03-12T08:15:13.521Z,99.86
2017-03-12T08:16:13.538Z,99.99
2017-03-12T08:17:13.559Z,99.99
2017-03-12T08:18:13.577Z,99.96
2017-03-12T08:19:13.601Z,99.67
2017-03-12T08:21:13.630Z,99.48
2017-03-12T08:22:13.647Z,99.15
2017-03-12T08:23:13.666Z,98.68
2017-03-12T08:24:28.208Z,98.21
2017-03-12T08:25:13.726Z,98.3
2017-03-12T08:26:13.723Z,97.45
2017-03-12T08:28:13.759Z,97.92
2017-03-12T08:29:13.770Z,98.11
2017-03-12T08:30:13.791Z,97.73
2017-03-12T08:31:13.807Z,98.21
2017-03-12T08:32:13.825Z,97.92
2017-03-12T08:33:13.842Z,97.73
2017-03-12T08:34:13.873Z,97.35
2017-03-12T08:35:13.880Z,97.07
2017-03-12T08:36:13.896Z,96.69
2017-03-12T08:37:13.914Z,96.41
2017-03-12T08:38:13.932Z,96.5
2017-03-12T08:39:28.478Z,96.78
2017-03-12T08:40:13.969Z,96.69
2017-03-12T08:41:13.984Z,96.59
2017-03-12T08:42:14.006Z,96.5
2017-03-12T08:43:14.031Z,96.69
2017-03-12T08:44:14.042Z,96.69
2017-03-12T08:45:14.057Z,96.5
2017-03-12T08:46:14.074Z,95.84
2017-03-12T08:47:14.093Z,96.22
2017-03-12T08:48:14.112Z,96.5
2017-03-12T08:49:14.130Z,96.55
2017-03-12T08:51:14.179Z,94.93
2017-03-12T08:52:14.188Z,94.56
2017-03-12T08:53:14.202Z,94.65
2017-03-12T08:54:14.219Z,94.37
2017-03-12T08:55:14.241Z,94.65
2017-03-12T08:56:14.607Z,94.46
2017-03-12T08:57:14.276Z,95.12
2017-03-12T08:58:14.303Z,94.56
2017-03-12T08:59:14.309Z,94.46
2017-03-12T09:00:14.332Z,94.46
2017-03-12T09:01:14.357Z,94.56
2017-03-12T09:02:14.374Z,94.46
2017-03-12T09:03:14.407Z,94.37
2017-03-12T09:04:14.417Z,94.46
2017-03-12T09:05:14.452Z,94.56
2017-03-12T09:06:14.439Z,94.27
2017-03-12T09:07:14.457Z,94.46
2017-03-12T09:08:14.476Z,95.31
2017-03-12T09:09:14.494Z,94.74
2017-03-12T09:10:14.519Z,95.31
2017-03-12T09:11:29.057Z,95.12
2017-03-12T09:12:14.561Z,95.03
2017-03-12T09:13:14.568Z,94.56
2017-03-12T09:14:14.587Z,94.08
2017-03-12T09:15:14.602Z,94.08
2017-03-12T09:16:14.624Z,93.99
2017-03-12T09:17:14.641Z,94.37
2017-03-12T09:18:14.661Z,94.18
2017-03-12T09:19:14.675Z,93.8
2017-03-12T09:20:14.712Z,93.61
2017-03-12T09:21:14.715Z,92.71
2017-03-12T09:22:14.732Z,92.9
2017-03-12T09:23:14.751Z,92.04
2017-03-12T09:24:14.769Z,92.61
2017-03-12T09:25:14.790Z,92.14
2017-03-12T09:26:14.814Z,91.56
2017-03-12T09:27:29.357Z,91.85
2017-03-12T09:28:14.851Z,91.66
2017-03-12T09:29:14.862Z,92.14
2017-03-12T09:30:14.885Z,92.61
2017-03-12T09:31:14.901Z,91.94
2017-03-12T09:33:14.941Z,92.76
2017-03-12T09:34:14.955Z,92.94
2017-03-12T09:35:14.975Z,92.94
2017-03-12T09:36:14.991Z,93.41
2017-03-12T09:37:15.011Z,93.7
2017-03-12T09:38:15.029Z,93.61
2017-03-12T09:39:15.047Z,93.51
2017-03-12T09:40:15.074Z,93.23
2017-03-12T09:41:15.082Z,93.65
2017-03-12T09:42:15.105Z,92.9
2017-03-12T09:43:29.649Z,92.42
2017-03-12T09:44:15.145Z,92.9
2017-03-12T09:45:15.157Z,92.71
2017-03-12T09:46:15.182Z,92.23
2017-03-12T09:47:15.194Z,92.04
2017-03-12T09:48:15.217Z,92.04
2017-03-12T09:49:15.233Z,91.66
2017-03-12T09:50:15.254Z,91.47
2017-03-12T09:51:15.273Z,91.56
2017-03-12T09:52:15.291Z,91.04
2017-03-12T09:53:15.311Z,90.66
2017-03-12T09:54:15.336Z,90.19
2017-03-12T09:55:15.349Z,88.95
2017-03-12T09:56:15.372Z,88.67
2017-03-12T09:57:15.387Z,89.14
2017-03-12T09:58:15.409Z,89.14
2017-03-12T09:59:29.952Z,89.58
2017-03-12T10:00:15.453Z,89.72
2017-03-12T10:01:15.464Z,89.05
2017-03-12T10:02:15.481Z,89.48
2017-03-12T10:03:15.502Z,89.86
2017-03-12T10:04:15.523Z,89.72
2017-03-12T10:05:15.540Z,89.62
2017-03-12T10:06:15.561Z,89.72
2017-03-12T10:07:15.609Z,89.72
2017-03-12T10:08:15.598Z,90.33
2017-03-12T10:09:15.616Z,90.81
2017-03-12T10:10:15.639Z,90.14
2017-03-12T10:11:15.668Z,90.71
2017-03-12T10:12:15.674Z,90.52
2017-03-12T10:13:15.693Z,90.28
2017-03-12T10:14:30.240Z,89.48
2017-03-12T10:15:15.738Z,89.81
2017-03-12T10:16:15.749Z,89.14
2017-03-12T10:17:15.784Z,89.24
2017-03-12T10:19:15.820Z,88.86
2017-03-12T10:20:15.829Z,88.01
2017-03-12T10:21:15.847Z,88.05
2017-03-12T10:22:15.882Z,87.38
2017-03-12T10:23:15.884Z,86.91
2017-03-12T10:24:15.907Z,86.24
2017-03-12T10:25:15.931Z,86.34
2017-03-12T10:26:15.945Z,86.3
2017-03-12T10:27:15.961Z,86.68
2017-03-12T10:28:15.993Z,87.15
2017-03-12T10:29:16.011Z,87.43
2017-03-12T10:30:16.023Z,87.53
2017-03-12T10:32:16.070Z,87.24
2017-03-12T10:33:16.084Z,86.68
2017-03-12T10:35:16.124Z,86.39
2017-03-12T10:36:16.137Z,86.3
2017-03-12T10:37:16.172Z,86.96
2017-03-12T10:38:16.173Z,86.87
2017-03-12T10:39:16.192Z,86.96
2017-03-12T10:40:16.211Z,87.24
2017-03-12T10:41:16.233Z,88.39
2017-03-12T10:42:16.252Z,87.82
2017-03-12T10:43:16.272Z,87.38
2017-03-12T10:44:16.291Z,86.43
2017-03-12T10:45:16.309Z,86.53
2017-03-12T10:46:30.856Z,86.24
2017-03-12T10:47:16.349Z,86.01
2017-03-12T10:48:16.369Z,86.39
2017-03-12T10:49:16.389Z,86.68
2017-03-12T10:50:16.452Z,87.24
2017-03-12T10:51:16.425Z,87.43
2017-03-12T10:52:16.448Z,86.96
2017-03-12T10:53:16.462Z,87.34
2017-03-12T10:54:16.485Z,87.05
2017-03-12T10:55:16.504Z,86.24
2017-03-12T10:56:16.520Z,85.58
2017-03-12T10:57:16.542Z,86.15
2017-03-12T10:58:16.559Z,85.58
2017-03-12T10:59:16.881Z,85.86
2017-03-12T11:00:16.599Z,85.86
2017-03-12T11:01:16.619Z,85.68
2017-03-12T11:02:31.166Z,86.43
2017-03-12T11:03:16.659Z,86.2
2017-03-12T11:04:16.675Z,86.3
2017-03-12T11:07:16.736Z,85.2
2017-03-12T11:09:16.790Z,84.91
2017-03-12T11:10:16.795Z,85.01
2017-03-12T11:11:16.817Z,85.01
2017-03-12T11:12:16.847Z,85.2
2017-03-12T11:13:16.854Z,86.3
2017-03-12T11:14:16.885Z,86.11
2017-03-12T11:15:16.895Z,86.01
2017-03-12T11:16:16.911Z,86.3
2017-03-12T11:17:16.931Z,86.24
2017-03-12T11:18:31.477Z,85.2
2017-03-12T11:21:17.012Z,85.58
2017-03-12T11:22:17.027Z,85.58
2017-03-12T11:23:17.051Z,85.58
2017-03-12T11:26:17.106Z,84.72
2017-03-12T11:27:17.129Z,85.01
2017-03-12T11:28:17.145Z,84.91
2017-03-12T11:29:17.170Z,85.49
2017-03-12T11:30:17.195Z,85.39
2017-03-12T11:31:17.205Z,84.63
2017-03-12T11:32:17.246Z,84.91
2017-03-12T11:33:17.257Z,85.01
2017-03-12T11:34:31.790Z,84.91
2017-03-12T11:35:17.290Z,85.11
2017-03-12T11:36:17.304Z,85.3
2017-03-12T11:37:17.320Z,84.91
2017-03-12T11:38:17.344Z,85.01
2017-03-12T11:39:17.365Z,85.11
2017-03-12T11:40:17.396Z,85.72
2017-03-12T11:41:17.400Z,85.82
2017-03-12T11:42:17.433Z,86.11
2017-03-12T11:43:17.452Z,86.11
2017-03-12T11:44:17.462Z,86.2
2017-03-12T11:45:17.104Z,85.86
2017-03-12T11:46:17.500Z,85.44
2017-03-12T11:47:17.527Z,85.44
2017-03-12T11:48:17.551Z,85.53
2017-03-12T11:49:32.086Z,86.11
2017-03-12T11:50:17.579Z,85.86
2017-03-12T11:51:17.607Z,85.2
2017-03-12T11:52:17.628Z,85.58
2017-03-12T11:53:17.654Z,85.3
2017-03-12T11:54:17.657Z,85.91
2017-03-12T11:55:17.681Z,86.2
2017-03-12T11:56:17.695Z,86.3
2017-03-12T11:57:17.727Z,87.15
2017-03-12T11:58:17.735Z,87.2
2017-03-12T11:59:17.754Z,87.96
2017-03-12T12:00:17.786Z,88.06
2017-03-12T12:01:17.796Z,88.1
2017-03-12T12:02:17.816Z,87.91
2017-03-12T12:03:17.846Z,87.62
2017-03-12T12:05:17.879Z,88.01
2017-03-12T12:06:17.502Z,87.72
2017-03-12T12:07:17.909Z,86.87
2017-03-12T12:08:17.554Z,86.77
2017-03-12T12:09:17.947Z,87.62
2017-03-12T12:10:17.966Z,87.34
2017-03-12T12:11:17.986Z,87.24
2017-03-12T12:12:18.006Z,87.34
2017-03-12T12:13:18.027Z,87.82
2017-03-12T12:14:18.041Z,86.77
2017-03-12T12:15:18.062Z,86.58
2017-03-12T12:16:18.085Z,86.68
2017-03-12T12:17:18.103Z,87.19
2017-03-12T12:18:18.120Z,86.53
2017-03-12T12:19:18.140Z,86.05
2017-03-12T12:20:18.157Z,85.49
2017-03-12T12:21:32.705Z,85.01
2017-03-12T12:22:18.198Z,85.2
2017-03-12T12:23:17.831Z,84.34
2017-03-12T12:24:18.237Z,84.53
2017-03-12T12:26:18.276Z,85.2
2017-03-12T12:27:18.303Z,84.63
2017-03-12T12:28:18.312Z,85.05
2017-03-12T12:29:18.336Z,84.86
2017-03-12T12:30:18.367Z,84.58
2017-03-12T12:31:18.382Z,84.2
2017-03-12T12:32:18.407Z,83.68
2017-03-12T12:33:18.411Z,84.63
2017-03-12T12:34:18.430Z,83.97
2017-03-12T12:35:18.448Z,84.16
2017-03-12T12:36:18.476Z,83.97
2017-03-12T12:37:33.015Z,85.01
2017-03-12T12:38:18.508Z,84.44
2017-03-12T12:39:18.526Z,84.82
2017-03-12T12:41:18.568Z,84.44
2017-03-12T12:42:18.593Z,84.53
2017-03-12T12:43:18.606Z,85.01
2017-03-12T12:44:18.624Z,85.11
2017-03-12T12:45:18.644Z,85.25
2017-03-12T12:46:18.659Z,85.53
2017-03-12T12:47:18.297Z,86.39
2017-03-12T12:48:18.706Z,86.39
2017-03-12T12:49:18.721Z,86.2
2017-03-12T12:50:18.743Z,86.39
2017-03-12T12:52:18.781Z,86.2
2017-03-12T12:53:33.324Z,85.82
2017-03-12T12:54:18.827Z,86.01
2017-03-12T12:55:18.843Z,85.82
2017-03-12T12:56:18.859Z,85.82
2017-03-12T12:57:18.876Z,85.82
2017-03-12T12:58:18.895Z,85.49
2017-03-12T12:59:18.921Z,85.91
2017-03-12T13:00:18.937Z,85.86
2017-03-12T13:01:18.952Z,84.82
2017-03-12T13:02:18.971Z,85.3
2017-03-12T13:03:18.991Z,84.63
2017-03-12T13:04:19.008Z,84.44
2017-03-12T13:05:18.644Z,84.91
2017-03-12T13:06:19.049Z,84.72
2017-03-12T13:07:19.067Z,84.44
2017-03-12T13:08:19.086Z,84.82
2017-03-12T13:09:33.633Z,84.63
2017-03-12T13:10:19.135Z,85.49
2017-03-12T13:12:19.161Z,84.44
2017-03-12T13:13:19.184Z,84.82
2017-03-12T13:14:19.205Z,84.1
2017-03-12T13:15:19.226Z,84.16
2017-03-12T13:16:19.240Z,84.16
2017-03-12T13:17:19.262Z,83.59
2017-03-12T13:18:19.282Z,84.25
2017-03-12T13:19:19.296Z,85.01
2017-03-12T13:20:18.930Z,84.44
2017-03-12T13:21:18.955Z,83.72
2017-03-12T13:22:19.373Z,83.25
2017-03-12T13:23:18.993Z,82.49
2017-03-12T13:24:33.923Z,82.73
2017-03-12T13:25:19.416Z,83.01
2017-03-12T13:26:19.446Z,83.01
2017-03-12T13:27:19.459Z,82.35
2017-03-12T13:28:19.484Z,83.01
2017-03-12T13:30:19.525Z,83.59
2017-03-12T13:31:19.532Z,83.39
2017-03-12T13:32:19.549Z,83.59
2017-03-12T13:33:19.570Z,83.39
2017-03-12T13:34:19.591Z,83.39
2017-03-12T13:35:19.611Z,83.87
2017-03-12T13:37:19.648Z,83.49
2017-03-12T13:38:19.675Z,83.39
2017-03-12T13:39:19.688Z,83.34
2017-03-12T13:40:19.714Z,83.49
2017-03-12T13:41:19.725Z,83.97
2017-03-12T13:42:19.746Z,83.44
2017-03-12T13:43:19.784Z,83.39
2017-03-12T13:45:19.803Z,83.2
2017-03-12T13:46:19.842Z,83.68
2017-03-12T13:48:19.868Z,84.16
2017-03-12T13:49:19.505Z,83.97
2017-03-12T13:50:19.913Z,84.82
2017-03-12T13:51:19.921Z,84.91
2017-03-12T13:52:19.938Z,84.72
2017-03-12T13:53:19.957Z,84.91
2017-03-12T13:54:19.999Z,84.72